Time;durP1;ratioP1;P1;durP2;ratioP2;P2;SDS_P1;SDS_P2;PMS_P1;PMS_P2;Temp;Humidity;BMP_temperature;BMP_pressure;BME280_temperature;BME280_humidity;BME280_pressure;Samples;Min_cycle;Max_cycle;Signal;HPM_P1;HPM_P2
2022/12/02 00:05:12;;;;;;;22.80;12.30;;;;;;;-0.53;85.75;99515.50;419762;1295;107589;-40
2022/12/02 00:15:32;;;;;;;30.50;16.40;;;;;;;-0.48;85.88;99511.80;419796;1294;98078;-39
2022/12/02 00:25:40;;;;;;;35.00;17.90;;;;;;;-0.56;85.92;99507.14;419767;1287;108756;-39
2022/12/02 00:35:47;;;;;;;22.90;11.50;;;;;;;-0.63;85.83;99504.34;419758;1295;98145;-39
2022/12/02 00:56:20;;;;;;;31.30;17.40;;;;;;;-0.76;85.78;99505.63;419800;1302;106718;-40
2022/12/02 01:06:27;;;;;;;20.00;10.90;;;;;;;-0.77;85.64;99507.13;419660;1294;98854;-40
2022/12/02 01:16:34;;;;;;;24.70;12.10;;;;;;;-0.77;85.58;99500.52;419644;1300;109410;-39
2022/12/02 01:26:42;;;;;;;21.40;12.40;;;;;;;-0.86;85.77;99498.77;419757;1300;98082;-39
2022/12/02 01:36:48;;;;;;;24.70;11.80;;;;;;;-0.92;85.85;99487.73;419732;1295;112944;-40
2022/12/02 01:46:55;;;;;;;16.80;9.40;;;;;;;-0.94;85.40;99485.80;419536;1295;108471;-38
2022/12/02 01:57:03;;;;;;;21.80;12.50;;;;;;;-0.95;85.70;99484.98;419708;1304;98464;-40
2022/12/02 02:07:10;;;;;;;21.90;12.10;;;;;;;-1.06;85.54;99476.96;419794;1294;107687;-40
2022/12/02 02:17:16;;;;;;;19.80;11.30;;;;;;;-1.05;85.42;99471.89;420567;1273;99261;-39
2022/12/02 02:27:24;;;;;;;25.50;14.40;;;;;;;-0.99;85.60;99464.73;419518;1304;110605;-39
2022/12/02 02:37:31;;;;;;;27.50;14.60;;;;;;;-1.01;85.74;99463.77;419574;1294;108035;-40
2022/12/02 02:47:38;;;;;;;34.40;15.80;;;;;;;-1.12;85.74;99458.99;419696;1294;99269;-39
2022/12/02 02:57:45;;;;;;;24.10;11.50;;;;;;;-1.14;85.52;99463.17;419579;1294;107940;-40
2022/12/02 03:07:52;;;;;;;25.40;13.70;;;;;;;-1.13;85.60;99467.73;419569;1295;99221;-40
2022/12/02 03:18:00;;;;;;;27.90;15.90;;;;;;;-1.15;85.81;99467.98;419951;1304;110683;-39
2022/12/02 03:28:08;;;;;;;18.60;10.70;;;;;;;-1.18;85.74;99462.30;419670;1295;107686;-38
2022/12/02 03:38:15;;;;;;;25.30;12.90;;;;;;;-1.13;85.82;99457.59;419839;1302;99223;-40
2022/12/02 03:48:24;;;;;;;39.30;18.90;;;;;;;-1.25;85.89;99451.98;419786;1286;108126;-40
2022/12/02 03:58:38;;;;;;;22.70;12.00;;;;;;;-1.30;85.79;99445.67;419844;1295;98755;-39
2022/12/02 04:08:45;;;;;;;25.20;12.50;;;;;;;-1.32;85.75;99445.23;419860;1286;111223;-40
2022/12/02 04:18:52;;;;;;;18.70;11.50;;;;;;;-1.46;85.87;99452.34;420257;1295;107573;-41
2022/12/02 04:28:59;;;;;;;18.10;10.10;;;;;;;-1.52;85.57;99447.44;419778;1294;99096;-39
2022/12/02 04:39:07;;;;;;;27.00;15.10;;;;;;;-1.52;85.73;99441.42;419771;1303;108211;-39
2022/12/02 04:49:14;;;;;;;27.50;14.10;;;;;;;-1.60;85.84;99438.95;419755;1302;98185;-39
2022/12/02 04:59:22;;;;;;;25.40;11.60;;;;;;;-1.65;85.56;99440.50;419580;1302;111665;-39
2022/12/02 05:09:29;;;;;;;21.20;10.20;;;;;;;-1.63;85.78;99443.55;419383;1302;106596;-40
2022/12/02 05:19:36;;;;;;;25.20;13.20;;;;;;;-1.75;85.77;99449.95;419555;1302;119783;-40
2022/12/02 05:29:43;;;;;;;21.80;11.10;;;;;;;-1.80;85.73;99451.47;419437;1295;108253;-40
2022/12/02 05:39:52;;;;;;;20.10;11.20;;;;;;;-1.81;85.70;99446.92;419377;1294;99425;-40
2022/12/02 06:00:14;;;;;;;33.60;15.80;;;;;;;-1.89;86.05;99439.40;419470;1307;107974;-40
2022/12/02 06:10:22;;;;;;;25.60;12.30;;;;;;;-1.86;85.85;99442.98;419463;1302;99237;-40
2022/12/02 06:20:33;;;;;;;24.90;13.20;;;;;;;-1.80;85.85;99448.83;419310;1304;108377;-39
2022/12/02 06:40:48;;;;;;;38.80;19.00;;;;;;;-1.83;86.27;99461.02;419562;1301;109669;-38
2022/12/02 06:50:55;;;;;;;30.80;17.10;;;;;;;-1.81;86.14;99473.98;419455;1302;108551;-40
2022/12/02 07:21:59;;;;;;;31.00;15.70;;;;;;;-1.82;86.18;99485.33;419692;1295;98062;-40
2022/12/02 07:32:08;;;;;;;21.30;13.30;;;;;;;-1.91;86.20;99480.83;419670;1294;112061;-40
2022/12/02 07:42:15;;;;;;;24.10;14.60;;;;;;;-1.89;86.43;99476.52;419693;1295;108760;-39
2022/12/02 07:52:23;;;;;;;33.80;19.50;;;;;;;-1.90;86.63;99479.05;419741;1304;99273;-40
2022/12/02 08:02:30;;;;;;;41.00;25.00;;;;;;;-1.93;86.60;99481.50;419681;1294;111612;-39
2022/12/02 08:22:45;;;;;;;28.90;14.90;;;;;;;-1.89;86.90;99481.04;419698;1307;98152;-40
2022/12/02 08:32:52;;;;;;;20.50;11.40;;;;;;;-1.90;86.92;99488.08;419686;1293;112803;-40
2022/12/02 08:42:59;;;;;;;18.20;10.10;;;;;;;-1.84;86.82;99485.81;419713;1300;107539;-41
2022/12/02 08:53:06;;;;;;;40.60;20.10;;;;;;;-1.80;87.03;99493.80;419686;1302;117737;-40
2022/12/02 09:03:13;;;;;;;31.60;18.60;;;;;;;-1.84;86.86;99499.52;419705;1293;106753;-40
2022/12/02 09:13:20;;;;;;;19.40;11.20;;;;;;;-1.78;86.94;99494.86;419566;1301;99255;-39
2022/12/02 09:23:29;;;;;;;29.10;14.60;;;;;;;-1.77;86.95;99486.27;419584;1294;112602;-40
2022/12/02 09:33:36;;;;;;;34.70;17.60;;;;;;;-1.86;87.38;99480.84;419694;1301;107469;-39
2022/12/02 09:43:43;;;;;;;23.30;11.00;;;;;;;-1.88;87.25;99481.52;419596;1300;98838;-40
2022/12/02 09:53:51;;;;;;;21.50;12.10;;;;;;;-1.89;87.18;99474.31;419605;1302;108519;-40
2022/12/02 10:03:58;;;;;;;24.20;12.70;;;;;;;-1.92;87.35;99472.48;419628;1297;98385;-40
2022/12/02 10:14:06;;;;;;;18.70;10.70;;;;;;;-2.07;87.06;99469.98;419707;1296;112691;-40
2022/12/02 10:24:13;;;;;;;17.40;10.00;;;;;;;-2.02;87.24;99471.67;419679;1298;105559;-40
2022/12/02 10:34:21;;;;;;;31.90;14.40;;;;;;;-2.02;87.46;99469.00;419732;1305;99252;-40
2022/12/02 10:44:28;;;;;;;21.90;12.60;;;;;;;-2.05;87.17;99455.98;419616;1307;110732;-39
2022/12/02 10:54:39;;;;;;;19.90;11.20;;;;;;;-1.99;87.23;99457.23;419503;1303;106835;-40
2022/12/02 11:14:57;;;;;;;29.50;13.50;;;;;;;-2.07;87.45;99443.42;419347;1294;490283;-39
2022/12/02 11:25:04;;;;;;;32.10;16.30;;;;;;;-2.11;87.18;99441.27;419736;1299;101562;-40
2022/12/02 11:35:13;;;;;;;16.20;10.30;;;;;;;-2.09;87.11;99433.85;419614;1294;111816;-40
2022/12/02 11:45:53;;;;;;;29.90;14.40;;;;;;;-2.08;87.20;99432.95;419750;1302;108423;-41
2022/12/02 11:56:01;;;;;;;21.60;12.90;;;;;;;-2.17;87.45;99431.23;419780;1303;98633;-39
2022/12/02 12:16:23;;;;;;;27.00;14.50;;;;;;;-2.05;87.41;99417.48;419860;1298;97995;-40
2022/12/02 12:26:34;;;;;;;38.30;21.30;;;;;;;-2.06;87.44;99421.70;419981;1303;113044;-39
2022/12/02 12:36:42;;;;;;;23.40;14.20;;;;;;;-2.05;87.43;99423.88;419754;1302;107680;-40
2022/12/02 12:46:49;;;;;;;23.00;14.10;;;;;;;-2.03;87.45;99421.98;419723;1302;99224;-40
2022/12/02 12:56:56;;;;;;;41.30;17.60;;;;;;;-2.08;87.53;99422.23;419868;1300;108108;-39
2022/12/02 13:07:03;;;;;;;23.10;12.30;;;;;;;-2.20;87.71;99416.59;419678;1295;99161;-40
2022/12/02 13:17:10;;;;;;;19.60;11.50;;;;;;;-2.21;87.52;99421.04;419578;1300;113455;-40
2022/12/02 13:27:17;;;;;;;26.80;12.60;;;;;;;-2.22;87.75;99426.30;419577;1302;107698;-40
2022/12/02 13:37:25;;;;;;;22.40;12.90;;;;;;;-2.29;87.93;99428.99;419741;1295;99236;-39
2022/12/02 13:47:32;;;;;;;24.90;11.50;;;;;;;-2.26;87.87;99427.38;419565;1302;109373;-39
2022/12/02 13:57:39;;;;;;;28.10;15.60;;;;;;;-2.16;87.88;99426.37;419729;1293;99233;-39
2022/12/02 14:07:45;;;;;;;36.80;14.50;;;;;;;-2.26;87.84;99436.84;419695;1298;111295;-40
2022/12/02 14:17:53;;;;;;;24.50;14.00;;;;;;;-2.32;87.74;99438.36;419631;1304;108465;-38
2022/12/02 14:28:00;;;;;;;26.30;11.80;;;;;;;-2.28;87.82;99440.86;419725;1295;99419;-40
2022/12/02 14:38:07;;;;;;;26.50;14.00;;;;;;;-2.32;87.99;99444.14;419699;1294;109227;-39
2022/12/02 14:48:15;;;;;;;21.60;13.10;;;;;;;-2.31;87.39;99443.48;419702;1295;98617;-40
2022/12/02 14:58:22;;;;;;;26.00;13.30;;;;;;;-2.28;87.29;99444.11;419660;1295;111437;-40
2022/12/02 15:08:30;;;;;;;33.70;15.90;;;;;;;-2.37;87.46;99447.62;419678;1295;108496;-40
2022/12/02 15:18:37;;;;;;;26.30;15.50;;;;;;;-2.40;87.11;99450.95;419734;1287;98533;-41
2022/12/02 15:28:44;;;;;;;26.30;14.10;;;;;;;-2.34;87.34;99445.67;419742;1304;107855;-41
2022/12/02 15:38:52;;;;;;;43.10;20.90;;;;;;;-2.38;87.65;99445.67;419927;1293;99233;-40
2022/12/02 15:48:59;;;;;;;35.50;19.10;;;;;;;-2.41;87.64;99442.08;419770;1294;111556;-40
2022/12/02 15:59:07;;;;;;;37.50;19.00;;;;;;;-2.34;87.59;99447.55;419746;1302;107912;-40
2022/12/02 16:09:15;;;;;;;47.60;21.70;;;;;;;-2.34;87.64;99438.79;419780;1294;99197;-40
2022/12/02 16:19:22;;;;;;;35.60;19.20;;;;;;;-2.39;87.86;99439.02;419728;1294;108082;-39
2022/12/02 16:29:29;;;;;;;38.70;18.70;;;;;;;-2.43;87.84;99447.23;419745;1302;98661;-40
2022/12/02 16:39:37;;;;;;;39.70;19.80;;;;;;;-2.48;88.29;99454.39;419777;1294;111357;-40
2022/12/02 16:49:44;;;;;;;55.20;23.90;;;;;;;-2.49;88.42;99456.92;419681;1301;108616;-39
2022/12/02 16:59:51;;;;;;;51.00;21.30;;;;;;;-2.57;88.36;99461.92;419805;1303;98651;-40
2022/12/02 17:09:58;;;;;;;46.10;22.50;;;;;;;-2.55;88.31;99462.62;419873;1302;111195;-40
2022/12/02 17:20:03;;;;;;;44.80;22.40;;;;;;;-2.47;88.21;99474.48;419743;1295;109484;-38
2022/12/02 17:30:12;;;;;;;49.20;21.30;;;;;;;-2.42;88.49;99478.98;419711;1294;99215;-38
2022/12/02 17:40:18;;;;;;;;;;;;;;;-2.57;88.74;99483.10;419682;1300;107639;-41
2022/12/02 17:50:25;;;;;;;42.10;20.20;;;;;;;-2.56;88.62;99485.45;419763;1294;99227;-39
2022/12/02 18:00:33;;;;;;;57.40;23.70;;;;;;;-2.56;88.86;99479.92;419649;1304;112287;-39
2022/12/02 18:10:41;;;;;;;50.90;21.40;;;;;;;-2.59;89.18;99481.91;419719;1293;107825;-41
2022/12/02 18:20:48;;;;;;;42.00;18.30;;;;;;;-2.61;88.87;99487.55;419727;1293;99178;-39
2022/12/02 18:30:55;;;;;;;29.40;15.10;;;;;;;-2.58;88.87;99489.02;419736;1295;106994;-39
2022/12/02 18:41:03;;;;;;;36.80;18.10;;;;;;;-2.57;89.08;99480.02;419629;1294;98046;-40
2022/12/02 18:51:10;;;;;;;30.30;15.50;;;;;;;-2.62;89.16;99475.23;419776;1303;111759;-39
2022/12/02 19:01:17;;;;;;;33.00;16.30;;;;;;;-2.59;88.88;99473.64;419587;1294;109744;-40
2022/12/02 19:11:25;;;;;;;32.50;17.10;;;;;;;-2.52;88.85;99474.90;419820;1302;99042;-39
2022/12/02 19:21:32;;;;;;;48.70;22.00;;;;;;;-2.47;89.12;99476.97;419734;1288;107893;-39
2022/12/02 19:31:39;;;;;;;46.10;20.20;;;;;;;-2.55;89.09;99474.80;419745;1287;99246;-40
2022/12/02 19:41:46;;;;;;;39.60;18.20;;;;;;;-2.49;88.98;99472.05;419737;1294;111966;-39
2022/12/02 19:51:52;;;;;;;37.90;17.10;;;;;;;-2.38;88.83;99476.92;419645;1295;108173;-40
2022/12/02 20:02:00;;;;;;;51.20;22.60;;;;;;;-2.26;89.03;99475.36;419757;1302;99265;-39
2022/12/02 20:12:06;;;;;;;53.10;25.10;;;;;;;-2.34;89.08;99477.75;419849;1304;107288;-39
2022/12/02 20:32:19;;;;;;;37.50;18.30;;;;;;;-2.31;88.98;99464.79;419802;1295;112486;-39
2022/12/02 20:42:27;;;;;;;52.00;23.70;;;;;;;-2.27;89.11;99465.41;419659;1294;107832;-38
2022/12/02 20:52:34;;;;;;;63.60;26.90;;;;;;;-2.28;89.32;99464.80;419723;1304;99236;-40
2022/12/02 21:02:41;;;;;;;44.30;20.10;;;;;;;-2.28;89.22;99461.58;419662;1300;112233;-40
2022/12/02 21:12:49;;;;;;;45.30;17.80;;;;;;;-2.25;89.16;99455.23;419644;1302;107299;-40
2022/12/02 21:22:57;;;;;;;51.40;22.90;;;;;;;-2.19;89.13;99446.10;419556;1294;98091;-40
2022/12/02 21:33:05;;;;;;;63.80;25.20;;;;;;;-2.15;89.33;99437.98;419695;1302;107883;-41
2022/12/02 21:43:12;;;;;;;72.70;28.00;;;;;;;-2.22;89.59;99440.80;419669;1287;99233;-40
2022/12/02 21:53:22;;;;;;;57.20;24.50;;;;;;;-2.22;89.29;99450.13;419549;1300;111552;-40
2022/12/02 22:03:32;;;;;;;46.70;23.50;;;;;;;-2.19;89.57;99452.32;419540;1295;107688;-39
2022/12/02 22:13:39;;;;;;;63.10;25.10;;;;;;;-2.15;89.68;99455.77;419660;1302;99255;-40
2022/12/02 22:23:46;;;;;;;77.00;29.00;;;;;;;-2.13;89.87;99451.63;419725;1302;108564;-40
2022/12/02 22:33:53;;;;;;;82.60;30.00;;;;;;;-2.16;89.97;99454.63;419660;1294;99365;-40
2022/12/02 22:44:00;;;;;;;71.70;26.30;;;;;;;-2.14;89.79;99453.32;419466;1302;110765;-40
2022/12/02 22:54:07;;;;;;;57.30;26.60;;;;;;;-2.10;89.93;99448.99;419500;1295;108555;-39
2022/12/02 23:04:14;;;;;;;67.80;27.50;;;;;;;-2.07;90.14;99451.11;419466;1301;98878;-40
2022/12/02 23:14:21;;;;;;;59.90;25.40;;;;;;;-2.09;90.39;99446.98;419333;1295;310156;-38
2022/12/02 23:24:29;;;;;;;57.00;24.40;;;;;;;-2.12;90.89;99439.64;419503;1294;98840;-39
2022/12/02 23:34:36;;;;;;;47.20;20.90;;;;;;;-2.09;90.99;99435.96;419659;1304;112350;-39
2022/12/02 23:44:43;;;;;;;59.50;24.60;;;;;;;-1.98;91.06;99430.19;419667;1294;107413;-40
2022/12/02 23:54:52;;;;;;;71.10;27.30;;;;;;;-1.95;90.96;99432.49;419741;1302;99227;-38
